Time;durP1;ratioP1;P1;durP2;ratioP2;P2;SDS_P1;SDS_P2;PMS_P1;PMS_P2;Temp;Humidity;BMP_temperature;BMP_pressure;BME280_temperature;BME280_humidity;BME280_pressure;Samples;Min_cycle;Max_cycle;Signal;HPM_P1;HPM_P2
2022/08/20 00:04:51;;;;;;;2.60;2.40;;;;;;;;;;12597355;28;20047;-74
2022/08/20 00:10:53;;;;;;;3.60;3.00;;;;;;;;;;12578816;28;20039;-73
2022/08/20 00:16:55;;;;;;;4.03;2.95;;;;;;;;;;12596487;28;20036;-75
2022/08/20 00:22:57;;;;;;;3.97;2.35;;;;;;;;;;12578707;28;20240;-74
2022/08/20 00:28:59;;;;;;;3.72;2.60;;;;;;;;;;12561295;28;20555;-74
2022/08/20 00:35:01;;;;;;;2.67;2.08;;;;;;;;;;12595532;28;20039;-74
2022/08/20 00:41:03;;;;;;;2.35;2.15;;;;;;;;;;12577483;28;20044;-74
2022/08/20 00:47:05;;;;;;;2.50;2.25;;;;;;;;;;12595089;28;20032;-74
2022/08/20 00:53:07;;;;;;;2.20;2.00;;;;;;;;;;12594130;28;20032;-74
2022/08/20 00:59:11;;;;;;;3.53;2.92;;;;;;;;;;12577018;28;20032;-74
2022/08/20 01:05:13;;;;;;;4.18;2.92;;;;;;;;;;12593575;28;20048;-74
2022/08/20 01:11:16;;;;;;;3.25;2.33;;;;;;;;;;12576289;28;20036;-74
2022/08/20 01:17:22;;;;;;;2.40;2.20;;;;;;;;;;12576327;28;20059;-75
2022/08/20 01:23:43;;;;;;;2.50;2.30;;;;;;;;;;12593666;28;20502;-73
2022/08/20 01:29:45;;;;;;;2.50;2.00;;;;;;;;;;12575898;28;20059;-73
2022/08/20 01:35:47;;;;;;;;;;;;;;;;;;12576171;28;20044;-73
2022/08/20 01:41:51;;;;;;;2.92;1.88;;;;;;;;;;12593250;28;20296;-74
2022/08/20 01:47:53;;;;;;;2.70;1.60;;;;;;;;;;12593146;28;20036;-73
2022/08/20 01:53:56;;;;;;;1.67;1.58;;;;;;;;;;12575669;28;20037;-73
2022/08/20 01:59:57;;;;;;;1.70;1.50;;;;;;;;;;12593505;28;20041;-73
2022/08/20 02:06:01;;;;;;;2.15;1.83;;;;;;;;;;12575031;28;20619;-74
2022/08/20 02:12:04;;;;;;;2.35;1.95;;;;;;;;;;12574991;28;20033;-73
2022/08/20 02:18:09;;;;;;;2.15;1.95;;;;;;;;;;12577526;28;20029;-74
2022/08/20 02:24:11;;;;;;;2.05;1.85;;;;;;;;;;12584039;28;20040;-74
2022/08/20 02:30:15;;;;;;;2.75;1.70;;;;;;;;;;12602609;28;20044;-74
2022/08/20 02:36:17;;;;;;;2.22;2.05;;;;;;;;;;12583407;28;20041;-74
2022/08/20 02:42:20;;;;;;;2.10;1.90;;;;;;;;;;12600804;28;20397;-73
2022/08/20 02:48:21;;;;;;;2.20;1.98;;;;;;;;;;12600784;28;20036;-73
2022/08/20 02:54:23;;;;;;;3.25;1.88;;;;;;;;;;12600292;28;20044;-74
2022/08/20 03:00:25;;;;;;;2.13;1.92;;;;;;;;;;12600981;28;20037;-73
2022/08/20 03:06:27;;;;;;;;;;;;;;;;;;12582603;28;20047;-75
2022/08/20 03:12:29;;;;;;;2.67;1.73;;;;;;;;;;12581689;28;20274;-74
2022/08/20 03:18:32;;;;;;;2.13;1.75;;;;;;;;;;12599587;28;20490;-75
2022/08/20 03:24:34;;;;;;;2.35;2.15;;;;;;;;;;12599084;28;20045;-73
2022/08/20 03:30:36;;;;;;;2.00;1.80;;;;;;;;;;12598740;28;20053;-74
2022/08/20 03:36:58;;;;;;;2.47;1.73;;;;;;;;;;12598301;28;20561;-75
2022/08/20 03:43:00;;;;;;;1.70;1.60;;;;;;;;;;12598009;28;20508;-75
2022/08/20 03:49:02;;;;;;;1.65;1.40;;;;;;;;;;12580053;28;20024;-73
2022/08/20 03:55:05;;;;;;;2.30;2.08;;;;;;;;;;12597594;28;20485;-73
2022/08/20 04:01:07;;;;;;;1.95;1.85;;;;;;;;;;12598100;28;20067;-73
2022/08/20 04:07:13;;;;;;;1.92;1.73;;;;;;;;;;12578981;28;20040;-73
2022/08/20 04:13:15;;;;;;;1.98;1.60;;;;;;;;;;12578838;28;20032;-73
2022/08/20 04:19:17;;;;;;;3.30;3.00;;;;;;;;;;12562188;28;20465;-73
2022/08/20 04:25:20;;;;;;;2.78;2.55;;;;;;;;;;12578029;28;20041;-73
2022/08/20 04:31:31;;;;;;;2.88;2.30;;;;;;;;;;12596044;28;20049;-73
2022/08/20 04:37:33;;;;;;;3.35;2.05;;;;;;;;;;12577795;28;20492;-73
2022/08/20 04:43:37;;;;;;;2.30;2.10;;;;;;;;;;12576477;28;20051;-73
2022/08/20 04:49:38;;;;;;;2.47;2.28;;;;;;;;;;12577265;28;20028;-74
2022/08/20 04:55:41;;;;;;;3.22;2.70;;;;;;;;;;12594891;28;20032;-73
2022/08/20 05:01:44;;;;;;;4.00;3.47;;;;;;;;;;12577498;28;20425;-73
2022/08/20 05:07:46;;;;;;;3.47;3.17;;;;;;;;;;12594232;28;20466;-73
2022/08/20 05:13:49;;;;;;;4.53;2.42;;;;;;;;;;12559744;28;20032;-74
2022/08/20 05:19:51;;;;;;;2.70;2.50;;;;;;;;;;12575761;28;20485;-73
2022/08/20 05:25:53;;;;;;;2.60;2.40;;;;;;;;;;12574173;28;20067;-74
2022/08/20 05:31:55;;;;;;;2.00;1.55;;;;;;;;;;12573485;28;20048;-74
2022/08/20 05:37:57;;;;;;;;;;;;;;;;;;12573669;28;20047;-74
2022/08/20 05:44:01;;;;;;;2.08;1.40;;;;;;;;;;12590842;28;19921;-74
2022/08/20 05:50:04;;;;;;;1.45;1.25;;;;;;;;;;12572900;28;20029;-74
2022/08/20 05:56:06;;;;;;;2.53;1.35;;;;;;;;;;12581852;28;20396;-74
2022/08/20 06:04:23;;;;;;;1.75;1.65;;;;;;;;;;12583018;28;20040;-74
2022/08/20 06:08:30;;;;;;;2.85;1.60;;;;;;;;;;12582387;28;20492;-74
2022/08/20 06:14:32;;;;;;;2.55;1.73;;;;;;;;;;12599928;28;20020;-73
2022/08/20 06:20:37;;;;;;;2.00;1.70;;;;;;;;;;12599529;28;20520;-73
2022/08/20 06:26:39;;;;;;;2.22;1.50;;;;;;;;;;12599202;28;20037;-74
2022/08/20 06:32:41;;;;;;;2.28;1.30;;;;;;;;;;12599651;28;20493;-73
2022/08/20 06:38:45;;;;;;;;;;;;;;;;;;12599309;28;20071;-73
2022/08/20 06:44:49;;;;;;;1.52;0.95;;;;;;;;;;12580531;28;19923;-73
2022/08/20 06:50:52;;;;;;;1.73;1.10;;;;;;;;;;12599656;28;20036;-73
2022/08/20 06:56:53;;;;;;;;;;;;;;;;;;12598182;28;20394;-74
2022/08/20 07:02:56;;;;;;;2.53;0.90;;;;;;;;;;12596801;28;19921;-74
2022/08/20 07:08:58;;;;;;;1.70;1.10;;;;;;;;;;12597461;28;20029;-73
2022/08/20 07:14:59;;;;;;;;;;;;;;;;;;12597617;28;20032;-74
2022/08/20 07:21:01;;;;;;;1.13;0.60;;;;;;;;;;12596887;28;20285;-74
2022/08/20 07:27:03;;;;;;;1.73;0.73;;;;;;;;;;12596630;28;20358;-73
2022/08/20 07:33:04;;;;;;;0.55;0.55;;;;;;;;;;12596992;28;20398;-74
2022/08/20 07:39:06;;;;;;;1.30;1.20;;;;;;;;;;12596119;28;20363;-74
2022/08/20 07:45:09;;;;;;;2.35;1.52;;;;;;;;;;12595716;28;20059;-74
2022/08/20 07:51:12;;;;;;;1.33;1.13;;;;;;;;;;12577677;28;20039;-74
2022/08/20 07:57:16;;;;;;;2.88;1.40;;;;;;;;;;12577211;28;20033;-73
2022/08/20 08:03:18;;;;;;;1.10;1.00;;;;;;;;;;12576805;28;20049;-73
2022/08/20 08:09:20;;;;;;;1.30;0.80;;;;;;;;;;12576579;28;20409;-73
2022/08/20 08:15:23;;;;;;;2.15;1.25;;;;;;;;;;12596360;28;20021;-74
2022/08/20 08:21:25;;;;;;;1.15;1.02;;;;;;;;;;12595963;28;20076;-74
2022/08/20 08:27:31;;;;;;;0.77;0.77;;;;;;;;;;12595648;28;20028;-73
2022/08/20 08:33:33;;;;;;;0.70;0.63;;;;;;;;;;12595854;28;20033;-74
2022/08/20 08:39:35;;;;;;;0.70;0.70;;;;;;;;;;12577611;28;20039;-72
2022/08/20 08:45:44;;;;;;;2.03;0.80;;;;;;;;;;12577011;28;20048;-73
2022/08/20 08:52:10;;;;;;;1.27;0.75;;;;;;;;;;12594819;28;20035;-74
2022/08/20 08:58:12;;;;;;;1.13;0.70;;;;;;;;;;12548401;28;20041;-74
2022/08/20 09:04:15;;;;;;;3.28;0.65;;;;;;;;;;12594286;28;20045;-74
2022/08/20 09:10:17;;;;;;;1.27;0.60;;;;;;;;;;12559912;28;20040;-73
2022/08/20 09:16:21;;;;;;;1.48;0.80;;;;;;;;;;12593900;28;20043;-75
2022/08/20 09:22:24;;;;;;;2.15;0.70;;;;;;;;;;12593647;28;20064;-74
2022/08/20 09:28:26;;;;;;;0.85;0.70;;;;;;;;;;12575299;28;20053;-74
2022/08/20 09:34:28;;;;;;;0.95;0.45;;;;;;;;;;12575346;28;20037;-73
2022/08/20 09:40:30;;;;;;;6.65;0.85;;;;;;;;;;12575478;28;20032;-75
2022/08/20 09:46:32;;;;;;;1.00;0.55;;;;;;;;;;12558847;28;20044;-74
2022/08/20 09:52:45;;;;;;;0.43;0.43;;;;;;;;;;12575459;28;20043;-73
2022/08/20 09:58:47;;;;;;;0.40;0.40;;;;;;;;;;12585237;28;20029;-74
2022/08/20 10:04:49;;;;;;;0.50;0.45;;;;;;;;;;12558625;28;20041;-74
2022/08/20 10:10:51;;;;;;;0.50;0.50;;;;;;;;;;12592593;28;20043;-73
2022/08/20 10:16:56;;;;;;;0.60;0.52;;;;;;;;;;12592574;28;20028;-74
2022/08/20 10:22:58;;;;;;;1.10;0.40;;;;;;;;;;12574906;28;20037;-75
2022/08/20 10:29:00;;;;;;;1.63;0.60;;;;;;;;;;12592212;28;20063;-74
2022/08/20 10:35:02;;;;;;;0.98;0.50;;;;;;;;;;12557744;28;20052;-74
2022/08/20 10:41:04;;;;;;;1.13;0.57;;;;;;;;;;12596793;28;20506;-74
2022/08/20 10:47:13;;;;;;;1.52;0.55;;;;;;;;;;12566179;28;20048;-75
2022/08/20 10:53:15;;;;;;;2.45;0.43;;;;;;;;;;12600719;28;20043;-74
2022/08/20 10:59:18;;;;;;;1.25;0.68;;;;;;;;;;12600665;28;20020;-75
2022/08/20 11:05:20;;;;;;;1.63;0.90;;;;;;;;;;12600413;28;20402;-75
2022/08/20 11:11:22;;;;;;;2.42;0.82;;;;;;;;;;12599914;28;20275;-74
2022/08/20 11:17:26;;;;;;;2.05;0.70;;;;;;;;;;12581508;28;20043;-74
2022/08/20 11:23:28;;;;;;;0.90;0.60;;;;;;;;;;12564332;28;20048;-74
2022/08/20 11:29:29;;;;;;;2.20;1.10;;;;;;;;;;12598985;28;20075;-74
2022/08/20 11:35:33;;;;;;;1.00;0.50;;;;;;;;;;12564277;28;20376;-74
2022/08/20 11:41:34;;;;;;;1.58;0.60;;;;;;;;;;12580243;28;20028;-74
2022/08/20 11:47:37;;;;;;;0.77;0.45;;;;;;;;;;12580324;28;20040;-74
2022/08/20 11:53:39;;;;;;;1.27;0.43;;;;;;;;;;12562786;28;20127;-74
2022/08/20 11:59:40;;;;;;;2.30;0.50;;;;;;;;;;12580116;28;20031;-74
2022/08/20 12:05:43;;;;;;;1.10;0.45;;;;;;;;;;12562464;28;20045;-73
2022/08/20 12:11:45;;;;;;;0.93;0.50;;;;;;;;;;12596760;28;20032;-73
2022/08/20 12:17:47;;;;;;;0.63;0.50;;;;;;;;;;12579463;28;20039;-75
2022/08/20 12:23:48;;;;;;;0.40;0.28;;;;;;;;;;12597120;28;20047;-74
2022/08/20 12:29:52;;;;;;;0.70;0.40;;;;;;;;;;12578289;28;20064;-73
2022/08/20 12:35:53;;;;;;;0.60;0.40;;;;;;;;;;12595616;28;20028;-73
2022/08/20 12:41:55;;;;;;;0.93;0.20;;;;;;;;;;12595472;28;20044;-74
2022/08/20 12:48:02;;;;;;;0.30;0.30;;;;;;;;;;12560782;28;20039;-74
2022/08/20 12:54:04;;;;;;;1.48;0.40;;;;;;;;;;12594850;28;20028;-74
2022/08/20 13:00:08;;;;;;;0.28;0.20;;;;;;;;;;12577367;28;20374;-75
2022/08/20 13:06:29;;;;;;;1.13;0.20;;;;;;;;;;12565110;28;20408;-74
2022/08/20 13:12:31;;;;;;;0.73;0.10;;;;;;;;;;12576537;28;20033;-74
2022/08/20 13:18:33;;;;;;;1.95;0.50;;;;;;;;;;12576352;28;20031;-73
2022/08/20 13:24:36;;;;;;;0.43;0.22;;;;;;;;;;12576314;28;20056;-73
2022/08/20 13:30:39;;;;;;;0.63;0.30;;;;;;;;;;12576557;28;20052;-74
2022/08/20 13:36:43;;;;;;;0.20;0.20;;;;;;;;;;12595033;28;20387;-73
2022/08/20 13:42:44;;;;;;;0.20;0.20;;;;;;;;;;12593681;28;20040;-74
2022/08/20 13:48:46;;;;;;;0.20;0.20;;;;;;;;;;12593485;28;20040;-73
2022/08/20 13:54:48;;;;;;;0.45;0.30;;;;;;;;;;12559206;28;20036;-74
2022/08/20 14:00:49;;;;;;;0.52;0.30;;;;;;;;;;12575797;28;20040;-73
2022/08/20 14:07:25;;;;;;;0.15;0.15;;;;;;;;;;12577323;28;20047;-74
2022/08/20 14:13:27;;;;;;;0.13;0.13;;;;;;;;;;12595880;28;20040;-75
2022/08/20 14:19:29;;;;;;;0.20;0.10;;;;;;;;;;12584534;28;20044;-74
2022/08/20 14:25:31;;;;;;;0.40;0.20;;;;;;;;;;12584044;28;20044;-74
2022/08/20 14:31:33;;;;;;;0.40;0.10;;;;;;;;;;12602259;28;20048;-73
2022/08/20 14:37:36;;;;;;;0.40;0.10;;;;;;;;;;12583929;28;20044;-73
2022/08/20 14:43:38;;;;;;;0.10;0.00;;;;;;;;;;12566650;28;20045;-73
2022/08/20 14:49:40;;;;;;;0.30;0.10;;;;;;;;;;12601004;28;20036;-74
2022/08/20 14:55:42;;;;;;;0.10;0.08;;;;;;;;;;12582794;28;20066;-73
2022/08/20 15:01:44;;;;;;;0.40;0.20;;;;;;;;;;12583312;28;20036;-72
2022/08/20 15:07:46;;;;;;;0.20;0.17;;;;;;;;;;12582331;28;20126;-74
2022/08/20 15:13:48;;;;;;;0.68;0.20;;;;;;;;;;12565376;28;20040;-73
2022/08/20 15:19:50;;;;;;;0.80;0.17;;;;;;;;;;12599718;28;20055;-73
2022/08/20 15:25:52;;;;;;;0.25;0.10;;;;;;;;;;12563983;28;20047;-73
2022/08/20 15:31:53;;;;;;;0.10;0.10;;;;;;;;;;12599029;28;20048;-74
2022/08/20 15:37:56;;;;;;;0.40;0.13;;;;;;;;;;12580936;28;20046;-73
2022/08/20 15:43:58;;;;;;;0.20;0.20;;;;;;;;;;12580699;28;20043;-72
2022/08/20 15:50:05;;;;;;;0.10;0.10;;;;;;;;;;12580460;28;20029;-74
2022/08/20 15:56:15;;;;;;;0.30;0.20;;;;;;;;;;12598255;28;20028;-74
2022/08/20 16:02:22;;;;;;;0.20;0.10;;;;;;;;;;12599079;28;20040;-73
2022/08/20 16:08:43;;;;;;;0.20;0.20;;;;;;;;;;12597159;28;20485;-75
2022/08/20 16:14:47;;;;;;;0.30;0.30;;;;;;;;;;12596872;28;20056;-73
2022/08/20 16:20:50;;;;;;;0.43;0.30;;;;;;;;;;12596615;28;20033;-73
2022/08/20 16:26:58;;;;;;;0.20;0.20;;;;;;;;;;12595916;28;20044;-74
2022/08/20 16:33:05;;;;;;;0.75;0.20;;;;;;;;;;12562430;28;20063;-73
2022/08/20 16:39:12;;;;;;;0.82;0.30;;;;;;;;;;12576654;28;20044;-74
2022/08/20 16:45:20;;;;;;;0.30;0.20;;;;;;;;;;12595341;28;20051;-75
2022/08/20 16:51:30;;;;;;;0.10;0.10;;;;;;;;;;12577023;28;20370;-73
2022/08/20 16:57:32;;;;;;;0.57;0.30;;;;;;;;;;12595325;28;20397;-74
2022/08/20 17:03:34;;;;;;;0.65;0.20;;;;;;;;;;12594415;28;20044;-74
2022/08/20 17:09:41;;;;;;;0.22;0.20;;;;;;;;;;12594769;28;20035;-74
2022/08/20 17:15:44;;;;;;;0.30;0.30;;;;;;;;;;12594366;28;20394;-74
2022/08/20 17:21:46;;;;;;;0.63;0.30;;;;;;;;;;12551633;28;20043;-75
2022/08/20 17:27:48;;;;;;;0.50;0.38;;;;;;;;;;12559389;28;20060;-74
2022/08/20 17:33:50;;;;;;;0.50;0.38;;;;;;;;;;12558827;28;20048;-75
2022/08/20 17:39:53;;;;;;;0.28;0.28;;;;;;;;;;12575371;28;20028;-73
2022/08/20 17:45:57;;;;;;;0.50;0.30;;;;;;;;;;12575680;28;20048;-74
2022/08/20 17:52:00;;;;;;;0.85;0.32;;;;;;;;;;12584424;28;20437;-74
2022/08/20 17:58:03;;;;;;;0.68;0.50;;;;;;;;;;12603200;28;20055;-74
2022/08/20 18:04:05;;;;;;;0.90;0.35;;;;;;;;;;12585211;28;20060;-74
2022/08/20 18:10:12;;;;;;;1.15;0.57;;;;;;;;;;12585186;28;20037;-74
2022/08/20 18:16:19;;;;;;;0.80;0.40;;;;;;;;;;12602482;28;20048;-74
2022/08/20 18:22:25;;;;;;;0.88;0.50;;;;;;;;;;12602271;28;20395;-74
2022/08/20 18:28:33;;;;;;;0.80;0.70;;;;;;;;;;12567343;28;20048;-74
2022/08/20 18:34:40;;;;;;;0.77;0.50;;;;;;;;;;12601881;28;20039;-74
2022/08/20 18:40:42;;;;;;;0.82;0.65;;;;;;;;;;12566864;28;20036;-74
2022/08/20 18:46:57;;;;;;;0.50;0.50;;;;;;;;;;12601182;28;20417;-74
2022/08/20 18:53:18;;;;;;;1.27;0.57;;;;;;;;;;12565929;28;20492;-74
2022/08/20 18:59:20;;;;;;;2.37;0.80;;;;;;;;;;12599987;28;20378;-75
2022/08/20 19:05:37;;;;;;;2.20;0.60;;;;;;;;;;12599841;28;20047;-73
2022/08/20 19:11:45;;;;;;;1.17;0.70;;;;;;;;;;12582172;28;20025;-75
2022/08/20 19:18:05;;;;;;;1.23;0.63;;;;;;;;;;12599877;28;20047;-74
2022/08/20 19:24:07;;;;;;;0.85;0.60;;;;;;;;;;12599519;28;20048;-74
2022/08/20 19:30:09;;;;;;;1.10;0.60;;;;;;;;;;12581840;28;20056;-74
2022/08/20 19:36:14;;;;;;;0.68;0.68;;;;;;;;;;12564537;28;20255;-75
2022/08/20 19:42:18;;;;;;;1.08;0.60;;;;;;;;;;12580755;28;20044;-73
2022/08/20 19:48:20;;;;;;;0.80;0.63;;;;;;;;;;12563959;28;20041;-74
2022/08/20 19:54:23;;;;;;;0.73;0.73;;;;;;;;;;12598028;28;20028;-76
2022/08/20 20:00:27;;;;;;;1.70;1.27;;;;;;;;;;12580839;28;20032;-75
2022/08/20 20:06:29;;;;;;;1.08;0.68;;;;;;;;;;12578808;28;20040;-74
2022/08/20 20:12:32;;;;;;;1.25;1.00;;;;;;;;;;12596922;28;20044;-74
2022/08/20 20:18:37;;;;;;;1.95;0.90;;;;;;;;;;12578082;28;20055;-74
2022/08/20 20:24:43;;;;;;;1.65;1.40;;;;;;;;;;12577081;28;20044;-74
2022/08/20 20:30:46;;;;;;;2.30;1.40;;;;;;;;;;12594801;28;20501;-74
2022/08/20 20:36:48;;;;;;;1.63;1.30;;;;;;;;;;12576823;28;20044;-75
2022/08/20 20:43:09;;;;;;;1.58;1.40;;;;;;;;;;12593982;28;20045;-73
2022/08/20 20:49:15;;;;;;;2.78;1.63;;;;;;;;;;12594045;28;20508;-75
2022/08/20 20:55:17;;;;;;;2.38;1.58;;;;;;;;;;12575412;28;20036;-74
2022/08/20 21:01:19;;;;;;;3.00;1.80;;;;;;;;;;12576217;28;20020;-74
2022/08/20 21:07:22;;;;;;;2.28;2.03;;;;;;;;;;12592931;28;20509;-74
2022/08/20 21:13:24;;;;;;;3.25;1.98;;;;;;;;;;12559256;28;20039;-74
2022/08/20 21:19:26;;;;;;;2.85;1.77;;;;;;;;;;12593154;28;20041;-76
2022/08/20 21:25:29;;;;;;;5.22;2.00;;;;;;;;;;12574960;28;20032;-74
2022/08/20 21:31:34;;;;;;;2.35;2.03;;;;;;;;;;12593544;28;20433;-74
2022/08/20 21:37:37;;;;;;;1.77;1.65;;;;;;;;;;12557788;28;20033;-74
2022/08/20 21:43:39;;;;;;;2.15;1.65;;;;;;;;;;12591316;28;20237;-75
2022/08/20 21:49:41;;;;;;;2.08;1.60;;;;;;;;;;12557998;28;20043;-73
2022/08/20 21:55:43;;;;;;;1.95;1.75;;;;;;;;;;12557765;28;20486;-74
2022/08/20 22:01:45;;;;;;;1.52;1.42;;;;;;;;;;12593148;28;20048;-74
2022/08/20 22:07:47;;;;;;;1.60;1.50;;;;;;;;;;12591895;28;20048;-74
2022/08/20 22:13:48;;;;;;;1.52;1.42;;;;;;;;;;12592989;28;20059;-74
2022/08/20 22:19:50;;;;;;;1.58;1.48;;;;;;;;;;12593167;28;20047;-75
2022/08/20 22:25:52;;;;;;;2.35;1.40;;;;;;;;;;12592519;28;20044;-74
2022/08/20 22:31:54;;;;;;;1.75;1.20;;;;;;;;;;12593035;28;20064;-73
2022/08/20 22:37:56;;;;;;;1.55;1.30;;;;;;;;;;12600700;28;20032;-73
2022/08/20 22:43:58;;;;;;;2.28;1.70;;;;;;;;;;12583373;28;20047;-74
2022/08/20 22:50:00;;;;;;;;;;;;;;;;;;12583779;28;20034;-73
2022/08/20 22:56:01;;;;;;;1.43;1.33;;;;;;;;;;12583060;28;20281;-73
2022/08/20 23:02:04;;;;;;;1.35;1.20;;;;;;;;;;12601475;28;20028;-74
2022/08/20 23:08:06;;;;;;;2.22;1.50;;;;;;;;;;12600202;28;20047;-73
2022/08/20 23:14:08;;;;;;;1.77;1.50;;;;;;;;;;12599838;28;20054;-74
2022/08/20 23:20:15;;;;;;;1.13;1.02;;;;;;;;;;12599989;28;20406;-74
2022/08/20 23:26:19;;;;;;;1.75;1.50;;;;;;;;;;12599584;28;20056;-74
2022/08/20 23:32:20;;;;;;;1.63;1.02;;;;;;;;;;12581576;28;20056;-74
2022/08/20 23:38:22;;;;;;;0.90;0.85;;;;;;;;;;12599023;28;20394;-73
2022/08/20 23:44:24;;;;;;;;;;;;;;;;;;12599012;28;20037;-73
2022/08/20 23:50:27;;;;;;;2.10;0.80;;;;;;;;;;12562807;28;20297;-73
2022/08/20 23:56:29;;;;;;;1.75;0.90;;;;;;;;;;12580128;28;20520;-73
